KCAE/CAE METAR and TAF weather

Enter ICAO airport designator
Station Type Date Time Source
KCAE METAR 2018/01/19 22:56 UTC NOAA

KCAE 192256Z VRB03KT 10SM FEW200 11/M03 A3018 RMK AO2 SLP221 T01061028


Station Type Date Time Source
KCAE Decoded METAR 2018/01/19 22:56 UTC NOAA

COLUMBIA METROPOLITAN AIRPORT , SC, United States (KCAE) 33-57N 081-07W 73M
Jan 19, 2018 - 05:56 PM EST / 2018.01.19 2256 UTC
Wind: Variable at 3 MPH (3 KT):0
Visibility: 10 mile(s):0
Sky conditions: mostly clear
Temperature: 51.1 F (10.6 C)
Dew Point: 27.0 F (-2.8 C)
Relative Humidity: 38%
Pressure (altimeter): 30.18 in. Hg (1022 hPa)
ob: KCAE 192256Z VRB03KT 10SM FEW200 11/M03 A3018 RMK AO2 SLP221 T01061028
cycle: 23

Station Type Date Time Source
KCAE TAF 2018/01/19 22:48 UTC NOAA

TAF
AMD KCAE 192147Z 1922/2018 VRB05KT P6SM SKC


Example: see airport list